Flight Track Log - Related Links

Times and Time Zones

All times are in EST time to prevent confusion due to time zone crossing. See the GTI4241 flight status page for this flight to view local times or setup timezone preferences in your user account.

Time Position Orientation Groundspeed Altitude Reporting Facility
EST Latitude Longitude Course Direction KTS MPH feet Rate Location/Type
Sun 07:51:00 PM 40.3375 -74.2488 232° Southwest  Level FlightAware Approximate
Sun 07:51:15 PM 40.3656 -74.1419 232° Southwest 308 354 12,800  Level FlightAware ADS-B (KWWD)
Sun 07:51:36 PM 40.3493 -74.1757 238° Southwest 318 366 14,300 2,538 Climbing FlightAware ADS-B
Sun 07:52:07 PM 40.3249 -74.2266 238° Southwest 320 368 15,000 1,548 Climbing FlightAware ADS-B (KWWD)
Sun 07:52:38 PM 40.3001 -74.2800 239° Southwest 331 381 15,900 1,071 Climbing FlightAware ADS-B (KWWD)
Sun 07:53:03 PM 40.2805 -74.3235 240° Southwest 326 375 16,000 511 Climbing FlightAware ADS-B (KWWD)
Sun 07:53:25 PM 40.2635 -74.3630 240° Southwest 324 373 16,300 1,472 Climbing FlightAware ADS-B (KWWD)
Sun 07:53:56 PM 40.2395 -74.4146 239° Southwest 331 381 17,300 2,000 Climbing FlightAware ADS-B (KWWD)
Sun 07:54:01 PM 40.2352 -74.4251 242° Southwest 333 383 17,500 2,069 Climbing FlightAware ADS-B (KWWD)
Sun 07:54:25 PM 40.2201 -74.4703 246° West 343 395 18,300 2,421 Climbing FlightAware ADS-B (KWWD)
Sun 07:54:58 PM 40.2122 -74.5351 261° West 340 391 19,800 2,417 Climbing FlightAware ADS-B (KWWD)
Sun 07:55:37 PM 40.2124 -74.6194 270° West 351 404 21,200 2,100 Climbing FlightAware ADS-B (KWWD)
Sun 07:56:18 PM 40.2124 -74.7062 270° West 353 406 22,600 2,028 Climbing FlightAware ADS-B (KWWD)
Sun 07:56:48 PM 40.2121 -74.7683 270° West 355 409 23,600 2,000 Climbing FlightAware ADS-B (KWWD)
Sun 07:57:18 PM 40.2114 -74.8329 269° West 356 410 24,600 1,826 Climbing FlightAware ADS-B (KWWD)
Sun 07:57:57 PM 40.2108 -74.9196 269° West 362 417 25,700 2,197 Climbing FlightAware ADS-B (KWWD)
Sun 07:58:29 PM 40.2105 -74.9886 270° West 349 402 27,200 3,209 Climbing FlightAware ADS-B (KWWD)
Sun 07:58:40 PM 40.2100 -75.0095 268° West 340 391 28,000 2,043 Climbing FlightAware ADS-B
Sun 07:59:16 PM 40.2090 -75.0809 269° West 341 392 28,800 1,273 Climbing FlightAware ADS-B
Sun 07:59:46 PM 40.2086 -75.1224 269° West 348 400 29,400 1,000 Climbing FlightAware ADS-B
Sun 08:00:16 PM 40.2082 -75.2088 270° West 353 406 29,800 1,048 Climbing FlightAware ADS-B (KWWD)
Sun 08:00:49 PM 40.2074 -75.2795 269° West 353 406 30,500 919 Climbing FlightAware ADS-B (KWWD)
Sun 08:02:07 PM 40.2054 -75.4496 269° West 369 425 31,500 778 Climbing FlightAware ADS-B (LFML / MRS)
Sun 08:02:37 PM 40.2046 -75.5171 269° West 375 432 31,900 952 Climbing FlightAware ADS-B (KWWD)
Sun 08:04:32 PM 40.2012 -75.7777 269° West 379 436 33,800 920 Climbing FlightAware ADS-B
Sun 08:05:07 PM 40.2001 -75.8604 269° West 381 438 34,200 638 Climbing FlightAware ADS-B (KWWD)
Sun 08:05:19 PM 40.1999 -75.8809 269° West 382 440 34,300 511 Climbing FlightAware ADS-B
Sun 08:05:54 PM 40.1981 -75.9668 268° West 386 444 34,600 706 Climbing FlightAware ADS-B
Sun 08:06:27 PM 40.1968 -76.0464 269° West 386 444 35,100 952 Climbing FlightAware ADS-B (KWWD)
Sun 08:06:57 PM 40.1960 -76.1135 269° West 382 440 35,600 1,050 Climbing FlightAware ADS-B
Sun 08:07:07 PM 40.1956 -76.1343 269° West 380 437 35,800 558 Climbing FlightAware ADS-B (KWWD)
Sun 08:07:40 PM 40.1941 -76.2123 269° West 382 440 36,000 190 Climbing FlightAware ADS-B (KWWD)
Sun 08:08:10 PM 40.1926 -76.2795 268° West 383 441 36,000  Level FlightAware ADS-B
Sun 08:08:41 PM 40.1927 -76.2703 89° East 381 438 36,000  Level FlightAware ADS-B (LFML / MRS)
Sun 08:09:20 PM 40.1897 -76.4443 269° West 376 433 36,000  Level FlightAware ADS-B (KWWD)
Sun 08:09:26 PM 40.1901 -76.4214 88° East 375 432 36,000  Level FlightAware ADS-B
Sun 08:12:31 PM 40.1797 -76.8745 268° West 377 434 36,000  Level FlightAware ADS-B (KWWD)
Sun 08:12:39 PM 40.1793 -76.8927 268° West 377 434 36,000  Level FlightAware ADS-B (KWWD)
Sun 08:13:18 PM 40.1771 -76.9817 268° West 377 434 36,000  Level FlightAware ADS-B (KWWD)
Sun 08:15:20 PM 40.1699 -77.2622 268° West 377 434 36,000  Level FlightAware ADS-B (KWWD)
Sun 08:15:59 PM 40.1674 -77.3511 268° West 379 436 36,000  Level FlightAware ADS-B (KWWD)
Sun 08:16:46 PM 40.1644 -77.4586 268° West 379 436 36,000  Level FlightAware ADS-B (KWWD)
Sun 08:19:11 PM 40.1541 -77.7893 268° West 379 436 36,000  Level FlightAware ADS-B (KWWD)
Sun 08:20:01 PM 40.1503 -77.9044 268° West 382 440 36,000  Level FlightAware ADS-B (KWWD)
Sun 08:21:09 PM 40.1458 -78.0331 268° West 380 437 36,000  Level Cleveland Center
Sun 08:22:11 PM 40.1339 -78.1958 265° West 379 436 36,000  Level Cleveland Center
Sun 08:23:13 PM 40.1092 -78.3331 257° West 384 442 36,000  Level Cleveland Center
Sun 08:24:15 PM 40.0856 -78.4683 257° West 385 443 36,000  Level Cleveland Center
Sun 08:25:17 PM 40.0600 -78.6039 256° West 385 443 36,000  Level Cleveland Center
Sun 08:26:19 PM 40.0342 -78.7392 256° West 385 443 36,000  Level Cleveland Center
Sun 08:27:21 PM 40.0028 -78.9036 256° West 387 445 36,000  Level Cleveland Center
Sun 08:28:23 PM 39.9806 -79.0197 256° West 389 448 36,000  Level Cleveland Center
Sun 08:29:25 PM 39.9494 -79.1850 256° West 390 449 36,000  Level Cleveland Center
Sun 08:30:27 PM 39.9239 -79.3219 256° West 390 449 36,000  Level Cleveland Center
Sun 08:31:29 PM 39.8969 -79.4572 255° West 389 448 36,000  Level Cleveland Center
Sun 08:32:31 PM 39.8694 -79.5933 255° West 389 448 36,000  Level Cleveland Center
Sun 08:33:33 PM 39.8431 -79.7281 256° West 388 447 36,000  Level Cleveland Center
Sun 08:34:34 PM 39.8169 -79.8619 256° West 385 443 36,000  Level Cleveland Center
Sun 08:35:36 PM 39.7900 -79.9942 255° West 383 441 36,000  Level Cleveland Center
Sun 08:36:38 PM 39.7628 -80.1269 255° West 381 438 36,000  Level Cleveland Center
Sun 08:37:40 PM 39.7314 -80.2864 256° West 380 437 36,000  Level Cleveland Center
Sun 08:38:42 PM 39.7033 -80.4192 255° West 380 437 36,000  Level Cleveland Center
Sun 08:39:43 PM 39.6761 -80.5508 255° West 380 437 36,000  Level Cleveland Center
Sun 08:40:28 PM 39.6583 -80.6397 255° West 380 437 36,000  Level Indianapolis Center
Sun 08:41:29 PM 39.6311 -80.7719 255° West 380 437 36,000  Level Indianapolis Center
Sun 08:45:19 PM 39.5184 -81.3052 255° West 383 441 36,000  Level FlightAware ADS-B
Sun 08:47:49 PM 39.4477 -81.6340 255° West 383 441 36,000  Level FlightAware ADS-B
Sun 08:49:35 PM 39.3969 -81.8676 254° West 384 442 36,000  Level FlightAware ADS-B
Sun 08:50:05 PM 39.3830 -81.9294 254° West 385 443 36,000  Level FlightAware ADS-B
Sun 08:50:39 PM 39.3658 -82.0068 254° West 385 443 36,000  Level FlightAware ADS-B
Sun 08:51:14 PM 39.3485 -82.0864 254° West 386 444 36,000  Level FlightAware ADS-B
Sun 08:51:44 PM 39.3338 -82.1528 254° West 386 444 36,000  Level FlightAware ADS-B
Sun 08:52:15 PM 39.3198 -82.2167 254° West 386 444 36,000  Level FlightAware ADS-B
Sun 08:52:54 PM 39.2993 -82.3075 254° West 386 444 36,000  Level FlightAware ADS-B
Sun 08:53:25 PM 39.2840 -82.3760 254° West 386 444 36,000  Level FlightAware ADS-B
Sun 08:53:55 PM 39.2692 -82.4423 254° West 386 444 36,000  Level FlightAware ADS-B
Sun 08:54:35 PM 39.2496 -82.5304 254° West 384 442 36,000  Level FlightAware ADS-B
Sun 08:55:05 PM 39.2347 -82.5962 254° West 383 441 36,000  Level FlightAware ADS-B
Sun 08:55:45 PM 39.2148 -82.6836 254° West 383 441 36,000  Level FlightAware ADS-B
Sun 08:56:15 PM 39.1996 -82.7490 253° West 383 441 36,000  Level FlightAware ADS-B
Sun 08:56:45 PM 39.1847 -82.8145 254° West 381 438 36,000  Level FlightAware ADS-B
Sun 08:57:24 PM 39.1653 -82.8990 254° West 377 434 36,000  Level FlightAware ADS-B
Sun 08:58:05 PM 39.1459 -82.9847 254° West 374 430 36,000  Level FlightAware ADS-B
Sun 08:58:35 PM 39.1315 -83.0465 253° West 371 427 36,000  Level FlightAware ADS-B
Sun 08:59:15 PM 39.1111 -83.1352 254° West 370 426 36,000  Level FlightAware ADS-B
Sun 08:59:54 PM 39.0918 -83.2169 253° West 367 422 36,000  Level FlightAware ADS-B
Sun 09:01:55 PM 39.0328 -83.4693 253° West 367 422 36,000  Level FlightAware ADS-B
Sun 09:02:25 PM 39.0203 -83.5234 253° West 365 420 36,000  Level FlightAware ADS-B
Sun 09:04:16 PM 38.9638 -83.7621 253° West 365 420 36,000  Level FlightAware ADS-B
Sun 09:04:46 PM 38.9485 -83.8263 253° West 366 421 36,000  Level FlightAware ADS-B
Sun 09:05:21 PM 38.9312 -83.8971 253° West 366 421 36,000  Level FlightAware ADS-B (KCVG)
Sun 09:05:55 PM 38.9145 -83.9675 253° West 366 421 36,000  Level FlightAware ADS-B
Sun 09:06:25 PM 38.8995 -84.0299 253° West 366 421 36,000  Level FlightAware ADS-B
Sun 09:06:56 PM 38.8840 -84.0942 253° West 366 421 36,000  Level FlightAware ADS-B
Sun 09:07:27 PM 38.8690 -84.1564 253° West 367 422 36,000  Level FlightAware ADS-B
Sun 09:08:02 PM 38.8529 -84.2231 253° West 368 423 36,000  Level FlightAware ADS-B (KCVG)
Sun 09:08:33 PM 38.8350 -84.2959 253° West 368 423 36,000  Level FlightAware ADS-B
Sun 09:09:03 PM 38.8196 -84.3582 252° West 368 423 36,000  Level FlightAware ADS-B (KCVG)
Sun 09:09:34 PM 38.8040 -84.4226 253° West 367 422 36,000  Level FlightAware ADS-B
Sun 09:10:04 PM 38.7949 -84.4600 253° West 367 422 36,000  Level FlightAware ADS-B (KCVG)
Sun 09:10:36 PM 38.7727 -84.5510 253° West 366 421 36,000  Level FlightAware ADS-B (KCVG)
Sun 09:10:56 PM 38.7624 -84.5924 252° West 366 421 36,000  Level FlightAware ADS-B (KCVG)
Sun 09:11:35 PM 38.7442 -84.6649 252° West 368 423 36,000  Level FlightAware ADS-B (KCVG)
Sun 09:12:06 PM 38.7265 -84.7374 253° West 368 423 36,000  Level FlightAware ADS-B (KCVG)
Sun 09:12:36 PM 38.7141 -84.7875 252° West 369 425 36,000  Level FlightAware ADS-B
Sun 09:12:56 PM 38.7005 -84.8415 252° West 370 426 36,000  Level FlightAware ADS-B (KCVG)
Sun 09:13:26 PM 38.6852 -84.9042 253° West 371 427 36,000  Level FlightAware ADS-B
Sun 09:13:57 PM 38.6688 -84.9689 252° West 372 428 36,000  Level FlightAware ADS-B (KCVG)
Sun 09:14:28 PM 38.6535 -85.0295 252° West 372 428 36,000  Level FlightAware ADS-B (KCVG)
Sun 09:18:14 PM 38.5333 -85.5041 252° West 369 425 36,000  Level FlightAware ADS-B (KIXA)
Sun 09:21:45 PM 38.5904 -85.2803 72° East 369 425 36,000  Level FlightAware ADS-B
Sun 09:25:42 PM 38.3112 -86.3568 252° West 366 421 36,000  Level FlightAware ADS-B
Sun 09:26:29 PM 38.2663 -86.5242 251° West 366 421 36,000  Level FlightAware ADS-B (KIXA)
Sun 09:27:02 PM 38.2526 -86.5752 251° West 366 421 36,000  Level FlightAware ADS-B
Sun 09:27:39 PM 38.2314 -86.6547 251° West 366 421 36,000  Level FlightAware ADS-B
Sun 09:28:24 PM 38.2038 -86.7586 251° West 367 422 36,000  Level FlightAware ADS-B
Sun 09:29:14 PM 38.1759 -86.8623 251° West 367 422 36,000  Level FlightAware ADS-B
Sun 09:29:52 PM 38.1587 -86.9254 251° West 367 422 36,000  Level FlightAware ADS-B
Sun 09:30:24 PM 38.1373 -87.0050 251° West 368 423 36,000  Level FlightAware ADS-B
Sun 09:31:25 PM 38.1058 -87.1194 251° West 369 425 36,000  Level FlightAware ADS-B
Sun 09:32:13 PM 38.0774 -87.2237 251° West 369 425 36,000  Level FlightAware ADS-B
Sun 09:35:44 PM 37.9574 -87.6577 251° West 367 422 36,000  Level FlightAware ADS-B
Sun 09:36:15 PM 37.9406 -87.7185 251° West 366 421 36,000  Level FlightAware ADS-B
Sun 09:36:44 PM 37.9289 -87.7805 257° West 362 417 36,000  Level FlightAware ADS-B
Sun 09:37:14 PM 37.9224 -87.8414 262° West 363 418 36,000  Level FlightAware ADS-B
Sun 09:38:08 PM 37.9122 -87.9552 264° West 363 418 36,000  Level FlightAware ADS-B
Sun 09:38:43 PM 37.9073 -88.0207 265° West 363 418 36,000  Level FlightAware ADS-B
Sun 09:39:16 PM 37.9013 -88.1008 265° West 363 418 36,000  Level FlightAware ADS-B
Sun 09:40:04 PM 37.8933 -88.2021 264° West 363 418 36,000  Level FlightAware ADS-B
Sun 09:40:34 PM 37.8882 -88.2632 264° West 363 418 36,000  Level FlightAware ADS-B
Sun 09:41:14 PM 37.8823 -88.3347 264° West 363 418 36,000  Level FlightAware ADS-B
Sun 09:41:51 PM 37.8745 -88.4254 264° West 362 417 36,000  Level FlightAware ADS-B
Sun 09:42:21 PM 37.8692 -88.4887 264° West 363 418 36,000  Level FlightAware ADS-B
Sun 09:42:53 PM 37.8634 -88.5561 264° West 362 417 36,000  Level FlightAware ADS-B
Sun 09:43:24 PM 37.8578 -88.6214 264° West 362 417 36,000  Level FlightAware ADS-B
Sun 09:43:54 PM 37.8523 -88.6844 264° West 362 417 36,000  Level FlightAware ADS-B
Sun 09:44:34 PM 37.8449 -88.7707 264° West 362 417 36,000  Level FlightAware ADS-B
Sun 09:45:06 PM 37.8392 -88.8360 264° West 362 417 36,000  Level FlightAware ADS-B
Sun 09:45:36 PM 37.8341 -88.8949 264° West 362 417 36,000  Level FlightAware ADS-B
Sun 09:46:06 PM 37.8281 -88.9620 264° West 362 417 36,000  Level FlightAware ADS-B
Sun 09:46:41 PM 37.8219 -89.0313 264° West 361 415 36,000  Level FlightAware ADS-B
Sun 09:47:15 PM 37.8149 -89.1090 264° West 361 415 36,000  Level FlightAware ADS-B
Sun 09:47:53 PM 37.8083 -89.1823 263° West 360 414 36,000  Level FlightAware ADS-B
Sun 09:48:55 PM 37.7986 -89.2867 263° West 360 414 36,000  Level Indianapolis Center
Sun 09:49:56 PM 37.7847 -89.4381 263° West 360 414 36,000  Level Indianapolis Center
Sun 09:51:22 PM 37.7697 -89.6003 263° West 362 417 36,000  Level Kansas City Center
Sun 09:52:23 PM 37.7581 -89.7244 263° West 359 413 36,000  Level Kansas City Center
Sun 09:53:24 PM 37.7464 -89.8492 263° West 359 413 36,000  Level Kansas City Center
Sun 09:54:25 PM 37.7344 -89.9728 263° West 359 413 36,000  Level Kansas City Center
Sun 09:55:25 PM 37.7219 -90.0964 263° West 359 413 36,000  Level Kansas City Center
Sun 09:56:29 PM 37.7061 -90.2469 262° West 358 412 36,000  Level Kansas City Center
Sun 09:57:29 PM 37.6939 -90.3736 263° West 359 413 36,000  Level Kansas City Center
Sun 09:58:31 PM 37.6819 -90.4975 263° West 359 413 36,000  Level Kansas City Center
Sun 09:59:31 PM 37.6681 -90.6228 262° West 359 413 36,000  Level Kansas City Center
Sun 10:00:35 PM 37.6553 -90.7494 263° West 361 415 36,000  Level Kansas City Center
Sun 10:01:33 PM 37.6417 -90.8753 262° West 361 415 36,000  Level Kansas City Center
Sun 10:02:37 PM 37.6289 -91.0000 263° West 361 415 36,000  Level Kansas City Center
Sun 10:03:37 PM 37.6139 -91.1361 262° West 363 418 36,000  Level Kansas City Center
Sun 10:04:38 PM 37.5997 -91.2636 262° West 363 418 36,000  Level Kansas City Center
Sun 10:05:39 PM 37.5850 -91.3892 262° West 363 418 36,000  Level Kansas City Center
Sun 10:06:40 PM 37.5714 -91.5306 263° West 363 418 36,000  Level Kansas City Center
Sun 10:07:43 PM 37.5581 -91.6408 261° West 361 415 36,000  Level Kansas City Center
Sun 10:08:42 PM 37.5436 -91.7686 262° West 362 417 36,000  Level Kansas City Center
Sun 10:09:44 PM 37.5286 -91.9031 262° West 361 415 36,000  Level Kansas City Center
Sun 10:10:47 PM 37.5156 -92.0181 262° West 360 414 36,000  Level Kansas City Center
Sun 10:11:47 PM 37.5017 -92.1422 262° West 360 414 36,000  Level Kansas City Center
Sun 10:12:48 PM 37.4831 -92.2928 261° West 359 413 36,000  Level Kansas City Center
Sun 10:13:52 PM 37.4697 -92.4178 262° West 359 413 36,000  Level Kansas City Center
Sun 10:14:52 PM 37.4542 -92.5422 261° West 359 413 36,000  Level Kansas City Center
Sun 10:15:53 PM 37.4394 -92.6669 262° West 359 413 36,000  Level Kansas City Center
Sun 10:16:55 PM 37.4233 -92.7903 261° West 358 412 36,000  Level Kansas City Center
Sun 10:17:56 PM 37.4083 -92.9119 261° West 355 409 36,000  Level Kansas City Center
Sun 10:18:56 PM 37.3922 -93.0353 261° West 355 409 36,000  Level Kansas City Center
Sun 10:19:59 PM 37.3778 -93.1589 262° West 355 409 36,000  Level Kansas City Center
Sun 10:21:00 PM 37.3622 -93.2803 261° West 355 409 36,000  Level Kansas City Center
Sun 10:22:01 PM 37.3653 -93.4028 272° West 353 406 36,000  Level Kansas City Center
Sun 10:23:01 PM 37.3800 -93.5258 279° West 357 411 36,000  Level Kansas City Center
Sun 10:24:02 PM 37.3944 -93.6478 279° West 355 409 36,000  Level Kansas City Center
Sun 10:25:06 PM 37.4119 -93.7711 280° West 354 407 36,000  Level Kansas City Center
Sun 10:26:07 PM 37.4269 -93.8942 279° West 354 407 36,000  Level Kansas City Center
Sun 10:27:08 PM 37.4428 -94.0172 279° West 354 407 36,000  Level Kansas City Center
Sun 10:28:07 PM 37.4569 -94.1614 277° West 355 409 36,000  Level Kansas City Center
Sun 10:29:09 PM 37.4625 -94.2858 273° West 356 410 36,000  Level Kansas City Center
Sun 10:30:11 PM 37.4717 -94.4094 275° West 356 410 36,000 -446 Level Kansas City Center
Sun 10:31:10 PM 37.4797 -94.5342 275° West 356 410 35,100 -1,024 Descending Kansas City Center
Sun 10:32:14 PM 37.4881 -94.6583 275° West 356 410 33,900 -1,200 Descending Kansas City Center
Sun 10:33:15 PM 37.4967 -94.7847 275° West 357 411 32,600 -958 Descending Kansas City Center
Sun 10:34:13 PM 37.5033 -94.9125 274° West 361 415 32,000 -300 Descending Kansas City Center
Sun 10:35:15 PM 37.5111 -95.0406 274° West 363 418 32,000  Level Kansas City Center
Sun 10:36:16 PM 37.5189 -95.1689 274° West 367 422 32,000 -290 Level Kansas City Center
Sun 10:37:19 PM 37.5269 -95.2950 275° West 367 422 31,400 -1,131 Descending Kansas City Center
Sun 10:38:18 PM 37.5333 -95.4172 274° West 360 414 29,700 -1,672 Descending Kansas City Center
Sun 10:39:21 PM 37.5417 -95.5653 274° West 356 410 28,000 -1,776 Descending Kansas City Center
Sun 10:40:23 PM 37.5481 -95.6867 274° West 355 409 26,000 -1,850 Descending Kansas City Center
Sun 10:41:21 PM 37.5542 -95.8061 274° West 348 400 24,300 -1,664 Descending Kansas City Center
Sun 10:42:22 PM 37.5600 -95.9236 274° West 342 394 22,700 -1,440 Descending Kansas City Center
Sun 10:43:26 PM 37.5656 -96.0392 274° West 333 383 21,300 -1,366 Descending Kansas City Center
Sun 10:44:25 PM 37.5708 -96.1517 273° West 329 379 19,900 -1,412 Descending Kansas City Center
Sun 10:45:25 PM 37.5756 -96.2631 273° West 323 372 18,500 -1,171 Descending Kansas City Center
Sun 10:46:28 PM 37.5806 -96.3731 273° West 318 366 17,500 -1,548 Descending Kansas City Center
Sun 10:47:29 PM 37.5875 -96.4883 274° West 313 360 15,300 -2,270 Descending Kansas City Center
Sun 10:47:42 PM 37.5878 -96.5164 271° West 312 359 14,700 -2,211 Descending Kansas City Center
Sun 10:47:48 PM 37.5886 -96.5242 278° West 311 358 14,600 -2,087 Descending Kansas City Center
Sun 10:48:28 PM 37.5917 -96.5947 273° West 310 357 13,100 -2,400 Descending Kansas City Center
Sun 10:48:48 PM 37.5942 -96.6369 274° West 302 348 12,200 -2,381 Descending Kansas City Center
Sun 10:49:31 PM 37.5783 -96.6967 252° West 305 351 10,600 -1,967 Descending Kansas City Center
Sun 10:49:49 PM 37.5622 -96.7347 242° Southwest 305 351 10,200 -508 Descending Kansas City Center
Sun 10:50:30 PM 37.5433 -96.7881 246° West 297 342 10,100 -656 Descending Kansas City Center
Sun 10:50:53 PM 37.5311 -96.8192 244° Southwest 260 299 9,500 -1,548 Descending Kansas City Center
Sun 10:51:32 PM 37.5189 -96.8683 253° West 253 291 8,500 -1,684 Descending Kansas City Center
Sun 10:51:50 PM 37.5081 -96.9019 248° West 243 280 7,900 -1,500 Descending Kansas City Center
Sun 10:52:32 PM 37.4953 -96.9503 252° West 250 288 7,000 -1,600 Descending Kansas City Center
Sun 10:52:50 PM 37.4869 -96.9844 253° West 249 287 6,300 -1,800 Descending Kansas City Center
Sun 10:53:32 PM 37.4769 -97.0347 256° West 250 288 5,200 -1,714 Descending Kansas City Center
Sun 10:53:53 PM 37.4664 -97.0722 250° West 256 295 4,500 -900 Descending Kansas City Center
Sun 10:54:52 PM 37.4481 -97.1622 256° West 276 318 4,000 -288 Descending Kansas City Center
Sun 10:55:37 PM 37.4375 -97.2139 256° West 261 300 4,000  Level Kansas City Center
Sun 10:55:55 PM 37.4353 -97.2433 265° West 222 255 4,000 -724 Level Kansas City Center
Sun 10:56:35 PM 37.4378 -97.2856 274° West 232 267 3,300 -931 Descending Kansas City Center
Sun 10:56:53 PM 37.4478 -97.3072 300° West 184 212 3,100 -290 Descending Kansas City Center
Sun 10:57:37 PM 37.4769 -97.3100 356° North 201 231 3,000  Descending Kansas City Center
Sun 10:57:55 PM 37.4981 -97.3047 11° North 163 188 3,100 -100 Climbing Kansas City Center
Sun 10:58:37 PM 37.5314 -97.2942 14° North 178 205 2,900 -295 Descending Kansas City Center
Sun 10:58:56 PM 37.5431 -97.2925 North 162 186 2,800 -787 Descending Kansas City Center
Sun 10:59:38 PM 37.5733 -97.2828 14° North 166 191 2,100 -787 Descending Kansas City Center
Sun 10:59:57 PM 37.5819 -97.2811 North 142 163 2,000 -295 Descending Kansas City Center
Sun 11:00:39 PM 37.6108 -97.2725 13° North 161 185 1,800 -286 Descending Kansas City Center

Login

Don't have an account? Register now (free) for customized features, flight alerts, and more!